sensor_id;sensor_type;location;lat;lon;timestamp;pressure;altitude;pressure_sealevel;temperature;humidity
34081;BME280;20358;50.272;19.026;2024-02-15T00:02:25;98706.72;;;12.53;49.88
34081;BME280;20358;50.272;19.026;2024-02-15T00:05:33;98710.94;;;12.56;49.91
34081;BME280;20358;50.272;19.026;2024-02-15T00:08:41;98708.41;;;12.54;50.02
34081;BME280;20358;50.272;19.026;2024-02-15T00:11:49;98717.06;;;12.56;50.06
34081;BME280;20358;50.272;19.026;2024-02-15T00:15:00;98730.94;;;12.58;50.03
34081;BME280;20358;50.272;19.026;2024-02-15T00:18:08;98725.88;;;12.55;50.06
34081;BME280;20358;50.272;19.026;2024-02-15T00:21:16;98733.78;;;12.54;50.11
34081;BME280;20358;50.272;19.026;2024-02-15T00:24:24;98731.41;;;12.49;50.25
34081;BME280;20358;50.272;19.026;2024-02-15T00:27:31;98732.31;;;12.48;50.25
34081;BME280;20358;50.272;19.026;2024-02-15T00:30:41;98734.81;;;12.51;50.50
34081;BME280;20358;50.272;19.026;2024-02-15T00:33:48;98727.69;;;12.53;50.41
34081;BME280;20358;50.272;19.026;2024-02-15T00:36:58;98735.50;;;12.55;50.38
34081;BME280;20358;50.272;19.026;2024-02-15T00:40:06;98741.00;;;12.50;50.35
34081;BME280;20358;50.272;19.026;2024-02-15T00:43:15;98743.75;;;12.47;50.41
34081;BME280;20358;50.272;19.026;2024-02-15T00:46:25;98750.84;;;12.45;50.55
34081;BME280;20358;50.272;19.026;2024-02-15T00:49:33;98751.69;;;12.45;50.68
34081;BME280;20358;50.272;19.026;2024-02-15T00:52:41;98749.16;;;12.44;50.77
34081;BME280;20358;50.272;19.026;2024-02-15T00:55:48;98754.25;;;12.47;50.88
34081;BME280;20358;50.272;19.026;2024-02-15T00:58:55;98747.44;;;12.43;50.82
34081;BME280;20358;50.272;19.026;2024-02-15T01:02:07;98750.84;;;12.45;50.98
34081;BME280;20358;50.272;19.026;2024-02-15T01:05:15;98748.84;;;12.50;50.79
34081;BME280;20358;50.272;19.026;2024-02-15T01:08:23;98748.63;;;12.55;50.96
34081;BME280;20358;50.272;19.026;2024-02-15T01:11:30;98747.47;;;12.60;50.83
34081;BME280;20358;50.272;19.026;2024-02-15T01:14:39;98755.16;;;12.63;50.54
34081;BME280;20358;50.272;19.026;2024-02-15T01:17:53;98758.88;;;12.59;50.43
34081;BME280;20358;50.272;19.026;2024-02-15T01:21:12;98744.84;;;12.60;50.64
34081;BME280;20358;50.272;19.026;2024-02-15T01:24:28;98751.75;;;12.61;50.77
34081;BME280;20358;50.272;19.026;2024-02-15T01:28:01;98741.88;;;12.66;50.45
34081;BME280;20358;50.272;19.026;2024-02-15T01:31:14;98732.69;;;12.75;50.43
34081;BME280;20358;50.272;19.026;2024-02-15T01:35:04;98731.38;;;12.83;50.19
34081;BME280;20358;50.272;19.026;2024-02-15T01:38:27;98734.47;;;12.91;50.05
34081;BME280;20358;50.272;19.026;2024-02-15T01:42:04;98722.69;;;12.98;49.84
34081;BME280;20358;50.272;19.026;2024-02-15T01:45:39;98716.34;;;13.02;49.55
34081;BME280;20358;50.272;19.026;2024-02-15T01:49:14;98712.31;;;13.13;49.62
34081;BME280;20358;50.272;19.026;2024-02-15T01:52:59;98713.72;;;13.20;49.28
34081;BME280;20358;50.272;19.026;2024-02-15T01:56:34;98714.22;;;13.26;49.17
34081;BME280;20358;50.272;19.026;2024-02-15T01:59:49;98714.91;;;13.30;49.15
34081;BME280;20358;50.272;19.026;2024-02-15T02:03:11;98704.25;;;13.33;49.02
34081;BME280;20358;50.272;19.026;2024-02-15T02:06:20;98712.72;;;13.38;48.94
34081;BME280;20358;50.272;19.026;2024-02-15T02:09:31;98710.69;;;13.43;48.73
34081;BME280;20358;50.272;19.026;2024-02-15T02:12:40;98709.84;;;13.42;48.57
34081;BME280;20358;50.272;19.026;2024-02-15T02:15:48;98701.03;;;13.43;48.39
34081;BME280;20358;50.272;19.026;2024-02-15T02:18:57;98708.91;;;13.43;48.75
34081;BME280;20358;50.272;19.026;2024-02-15T02:22:29;98705.28;;;13.46;48.59
34081;BME280;20358;50.272;19.026;2024-02-15T02:25:59;98711.69;;;13.40;48.33
34081;BME280;20358;50.272;19.026;2024-02-15T02:29:23;98701.38;;;13.37;48.70
34081;BME280;20358;50.272;19.026;2024-02-15T02:32:42;98707.47;;;13.38;48.84
34081;BME280;20358;50.272;19.026;2024-02-15T02:35:57;98707.31;;;13.41;48.59
34081;BME280;20358;50.272;19.026;2024-02-15T02:39:04;98708.06;;;13.43;48.68
34081;BME280;20358;50.272;19.026;2024-02-15T02:42:15;98700.84;;;13.46;48.80
34081;BME280;20358;50.272;19.026;2024-02-15T02:45:22;98696.28;;;13.50;48.62
34081;BME280;20358;50.272;19.026;2024-02-15T02:48:30;98703.06;;;13.54;48.35
34081;BME280;20358;50.272;19.026;2024-02-15T02:51:37;98695.19;;;13.54;48.21
34081;BME280;20358;50.272;19.026;2024-02-15T02:54:46;98698.56;;;13.56;48.34
34081;BME280;20358;50.272;19.026;2024-02-15T02:57:56;98689.69;;;13.58;48.21
34081;BME280;20358;50.272;19.026;2024-02-15T03:01:04;98698.41;;;13.59;48.32
34081;BME280;20358;50.272;19.026;2024-02-15T03:04:11;98700.00;;;13.61;48.20
34081;BME280;20358;50.272;19.026;2024-02-15T03:07:21;98692.19;;;13.60;48.08
34081;BME280;20358;50.272;19.026;2024-02-15T03:10:28;98697.47;;;13.60;48.23
34081;BME280;20358;50.272;19.026;2024-02-15T03:13:40;98702.06;;;13.56;48.34
34081;BME280;20358;50.272;19.026;2024-02-15T03:16:47;98697.63;;;13.57;48.36
34081;BME280;20358;50.272;19.026;2024-02-15T03:19:56;98704.59;;;13.58;48.31
34081;BME280;20358;50.272;19.026;2024-02-15T03:23:04;98701.19;;;13.56;48.34
34081;BME280;20358;50.272;19.026;2024-02-15T03:26:12;98702.88;;;13.57;48.27
34081;BME280;20358;50.272;19.026;2024-02-15T03:29:22;98700.25;;;13.57;48.19
34081;BME280;20358;50.272;19.026;2024-02-15T03:32:29;98697.81;;;13.54;48.20
34081;BME280;20358;50.272;19.026;2024-02-15T03:35:37;98697.72;;;13.55;48.37
34081;BME280;20358;50.272;19.026;2024-02-15T03:38:46;98697.81;;;13.54;48.15
34081;BME280;20358;50.272;19.026;2024-02-15T03:41:53;98693.75;;;13.48;48.38
34081;BME280;20358;50.272;19.026;2024-02-15T03:45:07;98688.72;;;13.44;48.45
34081;BME280;20358;50.272;19.026;2024-02-15T03:48:15;98701.38;;;13.53;48.56
34081;BME280;20358;50.272;19.026;2024-02-15T03:51:23;98692.72;;;13.51;48.42
34081;BME280;20358;50.272;19.026;2024-02-15T03:54:30;98691.78;;;13.52;48.32
34081;BME280;20358;50.272;19.026;2024-02-15T03:57:39;98694.41;;;13.52;48.57
34081;BME280;20358;50.272;19.026;2024-02-15T04:00:50;98691.72;;;13.53;48.42
34081;BME280;20358;50.272;19.026;2024-02-15T04:04:01;98692.56;;;13.54;48.60
34081;BME280;20358;50.272;19.026;2024-02-15T04:07:15;98697.63;;;13.57;48.56
34081;BME280;20358;50.272;19.026;2024-02-15T04:10:43;98694.06;;;13.58;48.58
34081;BME280;20358;50.272;19.026;2024-02-15T04:14:08;98691.19;;;13.62;48.47
34081;BME280;20358;50.272;19.026;2024-02-15T04:17:40;98696.53;;;13.61;48.49
34081;BME280;20358;50.272;19.026;2024-02-15T04:21:15;98690.59;;;13.57;48.50
34081;BME280;20358;50.272;19.026;2024-02-15T04:24:24;98692.38;;;13.57;48.47
34081;BME280;20358;50.272;19.026;2024-02-15T04:27:31;98689.75;;;13.57;48.72
34081;BME280;20358;50.272;19.026;2024-02-15T04:30:39;98694.06;;;13.58;48.65
34081;BME280;20358;50.272;19.026;2024-02-15T04:33:50;98691.44;;;13.58;48.71
34081;BME280;20358;50.272;19.026;2024-02-15T04:37:32;98693.22;;;13.57;48.77
34081;BME280;20358;50.272;19.026;2024-02-15T04:40:56;98694.84;;;13.60;48.80
34081;BME280;20358;50.272;19.026;2024-02-15T04:44:32;98697.28;;;13.63;48.68
34081;BME280;20358;50.272;19.026;2024-02-15T04:48:17;98693.75;;;13.64;48.62
34081;BME280;20358;50.272;19.026;2024-02-15T04:51:43;98698.22;;;13.62;48.64
34081;BME280;20358;50.272;19.026;2024-02-15T04:55:10;98698.41;;;13.59;48.71
34081;BME280;20358;50.272;19.026;2024-02-15T04:58:32;98693.06;;;13.60;48.82
34081;BME280;20358;50.272;19.026;2024-02-15T05:01:59;98710.59;;;13.60;48.72
34081;BME280;20358;50.272;19.026;2024-02-15T05:05:12;98716.59;;;13.62;48.89
34081;BME280;20358;50.272;19.026;2024-02-15T05:08:29;98715.78;;;13.61;48.83
34081;BME280;20358;50.272;19.026;2024-02-15T05:11:46;98714.56;;;13.67;48.78
34081;BME280;20358;50.272;19.026;2024-02-15T05:15:04;98723.22;;;13.69;48.54
34081;BME280;20358;50.272;19.026;2024-02-15T05:18:16;98712.72;;;13.69;48.77
34081;BME280;20358;50.272;19.026;2024-02-15T05:21:31;98721.53;;;13.68;48.70
34081;BME280;20358;50.272;19.026;2024-02-15T05:24:45;98723.22;;;13.69;48.49
34081;BME280;20358;50.272;19.026;2024-02-15T05:27:54;98723.28;;;13.67;48.73
34081;BME280;20358;50.272;19.026;2024-02-15T05:31:11;98726.63;;;13.71;48.70
34081;BME280;20358;50.272;19.026;2024-02-15T05:34:22;98733.56;;;13.72;48.61
34081;BME280;20358;50.272;19.026;2024-02-15T05:37:33;98731.88;;;13.71;48.70
34081;BME280;20358;50.272;19.026;2024-02-15T05:40:49;98731.69;;;13.74;48.63
34081;BME280;20358;50.272;19.026;2024-02-15T05:44:05;98730.75;;;13.75;48.53
34081;BME280;20358;50.272;19.026;2024-02-15T05:47:20;98738.63;;;13.75;48.61
34081;BME280;20358;50.272;19.026;2024-02-15T05:50:28;98735.84;;;13.78;48.49
34081;BME280;20358;50.272;19.026;2024-02-15T05:53:36;98741.84;;;13.80;48.24
34081;BME280;20358;50.272;19.026;2024-02-15T05:56:47;98741.09;;;13.78;48.31
34081;BME280;20358;50.272;19.026;2024-02-15T05:59:57;98744.56;;;13.79;48.53
34081;BME280;20358;50.272;19.026;2024-02-15T06:03:18;98751.53;;;13.80;48.52
34081;BME280;20358;50.272;19.026;2024-02-15T06:06:30;98744.75;;;13.76;48.35
34081;BME280;20358;50.272;19.026;2024-02-15T06:09:37;98747.63;;;13.71;48.46
34081;BME280;20358;50.272;19.026;2024-02-15T06:12:48;98751.19;;;13.70;48.48
34081;BME280;20358;50.272;19.026;2024-02-15T06:15:55;98754.94;;;13.66;48.47
34081;BME280;20358;50.272;19.026;2024-02-15T06:19:03;98763.13;;;13.60;48.65
34081;BME280;20358;50.272;19.026;2024-02-15T06:22:10;98759.84;;;13.56;48.75
34081;BME280;20358;50.272;19.026;2024-02-15T06:25:19;98766.88;;;13.56;48.84
34081;BME280;20358;50.272;19.026;2024-02-15T06:28:31;98761.78;;;13.53;49.00
34081;BME280;20358;50.272;19.026;2024-02-15T06:31:51;98763.72;;;13.49;48.95
34081;BME280;20358;50.272;19.026;2024-02-15T06:35:20;98757.97;;;13.43;49.19
34081;BME280;20358;50.272;19.026;2024-02-15T06:38:49;98773.28;;;13.35;49.31
34081;BME280;20358;50.272;19.026;2024-02-15T06:42:08;98771.13;;;13.26;49.68
34081;BME280;20358;50.272;19.026;2024-02-15T06:45:22;98765.88;;;13.26;49.56
34081;BME280;20358;50.272;19.026;2024-02-15T06:48:29;98769.78;;;13.19;49.70
34081;BME280;20358;50.272;19.026;2024-02-15T06:51:37;98771.94;;;13.11;50.00
34081;BME280;20358;50.272;19.026;2024-02-15T06:54:47;98777.03;;;13.14;50.16
34081;BME280;20358;50.272;19.026;2024-02-15T06:57:55;98775.34;;;13.13;50.14
34081;BME280;20358;50.272;19.026;2024-02-15T07:01:05;98771.94;;;13.11;50.20
34081;BME280;20358;50.272;19.026;2024-02-15T07:04:13;98773.66;;;13.12;50.21
34081;BME280;20358;50.272;19.026;2024-02-15T07:07:20;98778.91;;;13.12;50.16
34081;BME280;20358;50.272;19.026;2024-02-15T07:10:33;98775.53;;;13.10;50.26
34081;BME280;20358;50.272;19.026;2024-02-15T07:13:40;98767.66;;;13.10;50.32
34081;BME280;20358;50.272;19.026;2024-02-15T07:16:50;98774.72;;;13.07;50.39
34081;BME280;20358;50.272;19.026;2024-02-15T07:20:00;98767.81;;;13.05;50.67
34081;BME280;20358;50.272;19.026;2024-02-15T07:23:08;98768.56;;;13.09;50.57
34081;BME280;20358;50.272;19.026;2024-02-15T07:26:16;98767.44;;;13.13;50.47
34081;BME280;20358;50.272;19.026;2024-02-15T07:29:24;98767.41;;;13.14;50.65
34081;BME280;20358;50.272;19.026;2024-02-15T07:32:34;98769.16;;;13.14;50.39
34081;BME280;20358;50.272;19.026;2024-02-15T07:35:42;98786.47;;;13.18;50.62
34081;BME280;20358;50.272;19.026;2024-02-15T07:38:50;98788.00;;;13.22;50.51
34081;BME280;20358;50.272;19.026;2024-02-15T07:41:58;98789.50;;;13.26;50.38
34081;BME280;20358;50.272;19.026;2024-02-15T07:45:10;98787.69;;;13.28;50.47
34081;BME280;20358;50.272;19.026;2024-02-15T07:48:21;98770.63;;;13.19;50.56
34081;BME280;20358;50.272;19.026;2024-02-15T07:51:30;98790.31;;;13.28;50.66
34081;BME280;20358;50.272;19.026;2024-02-15T07:54:47;98784.69;;;13.34;50.55
34081;BME280;20358;50.272;19.026;2024-02-15T07:57:55;98775.75;;;13.38;50.65
34081;BME280;20358;50.272;19.026;2024-02-15T08:01:04;98772.72;;;13.45;50.54
34081;BME280;20358;50.272;19.026;2024-02-15T08:04:14;98779.84;;;13.59;50.45
34081;BME280;20358;50.272;19.026;2024-02-15T08:07:22;98770.00;;;13.62;50.32
34081;BME280;20358;50.272;19.026;2024-02-15T08:10:35;98768.97;;;13.65;50.23
34081;BME280;20358;50.272;19.026;2024-02-15T08:13:44;98744.91;;;13.57;50.19
34081;BME280;20358;50.272;19.026;2024-02-15T08:16:53;98762.72;;;13.83;50.13
34081;BME280;20358;50.272;19.026;2024-02-15T08:20:05;98772.91;;;13.89;50.02
34081;BME280;20358;50.272;19.026;2024-02-15T08:23:14;98761.25;;;13.93;50.04
34081;BME280;20358;50.272;19.026;2024-02-15T08:26:23;98763.06;;;14.08;49.86
34081;BME280;20358;50.272;19.026;2024-02-15T08:29:30;98755.81;;;14.12;49.75
34081;BME280;20358;50.272;19.026;2024-02-15T08:32:43;98755.38;;;14.19;49.51
34081;BME280;20358;50.272;19.026;2024-02-15T08:36:01;98756.91;;;14.23;49.53
34081;BME280;20358;50.272;19.026;2024-02-15T08:39:14;98750.47;;;14.29;49.45
34081;BME280;20358;50.272;19.026;2024-02-15T08:42:21;98754.53;;;14.35;49.38
34081;BME280;20358;50.272;19.026;2024-02-15T08:45:29;98757.56;;;14.43;49.37
34081;BME280;20358;50.272;19.026;2024-02-15T08:48:42;98750.91;;;14.51;49.11
34081;BME280;20358;50.272;19.026;2024-02-15T08:52:02;98755.44;;;14.63;49.30
34081;BME280;20358;50.272;19.026;2024-02-15T08:55:13;98744.88;;;14.79;48.74
34081;BME280;20358;50.272;19.026;2024-02-15T08:58:30;98752.78;;;14.93;48.64
34081;BME280;20358;50.272;19.026;2024-02-15T09:01:43;98756.94;;;15.11;48.56
34081;BME280;20358;50.272;19.026;2024-02-15T09:05:23;98752.03;;;15.33;47.97
34081;BME280;20358;50.272;19.026;2024-02-15T09:08:32;98753.00;;;15.46;47.57
34081;BME280;20358;50.272;19.026;2024-02-15T09:11:42;98757.91;;;15.52;47.46
34081;BME280;20358;50.272;19.026;2024-02-15T09:14:54;98755.53;;;15.62;47.48
34081;BME280;20358;50.272;19.026;2024-02-15T09:18:07;98756.00;;;15.69;47.21
34081;BME280;20358;50.272;19.026;2024-02-15T09:21:15;98757.41;;;15.74;46.64
34081;BME280;20358;50.272;19.026;2024-02-15T09:24:34;98763.31;;;15.78;46.89
34081;BME280;20358;50.272;19.026;2024-02-15T09:27:41;98764.81;;;15.82;46.69
34081;BME280;20358;50.272;19.026;2024-02-15T09:30:53;98764.81;;;15.82;46.64
34081;BME280;20358;50.272;19.026;2024-02-15T09:34:11;98758.03;;;15.78;46.63
34081;BME280;20358;50.272;19.026;2024-02-15T09:37:20;98758.06;;;15.64;46.76
34081;BME280;20358;50.272;19.026;2024-02-15T09:40:33;98757.31;;;15.62;47.06
34081;BME280;20358;50.272;19.026;2024-02-15T09:43:40;98757.31;;;15.62;47.15
34081;BME280;20358;50.272;19.026;2024-02-15T09:47:00;98753.06;;;15.59;47.39
34081;BME280;20358;50.272;19.026;2024-02-15T09:50:13;98751.59;;;15.55;47.13
34081;BME280;20358;50.272;19.026;2024-02-15T09:53:21;98753.16;;;15.43;47.46
34081;BME280;20358;50.272;19.026;2024-02-15T09:56:34;98756.59;;;15.45;47.73
34081;BME280;20358;50.272;19.026;2024-02-15T09:59:41;98753.00;;;15.46;47.82
34081;BME280;20358;50.272;19.026;2024-02-15T10:02:50;98747.72;;;15.46;47.68
34081;BME280;20358;50.272;19.026;2024-02-15T10:05:59;98744.72;;;15.52;47.67
34081;BME280;20358;50.272;19.026;2024-02-15T10:09:25;98746.75;;;15.62;47.73
34081;BME280;20358;50.272;19.026;2024-02-15T10:12:39;98740.44;;;15.64;47.49
34081;BME280;20358;50.272;19.026;2024-02-15T10:15:47;98755.53;;;15.62;47.48
34081;BME280;20358;50.272;19.026;2024-02-15T10:19:08;98746.97;;;15.59;47.63
34081;BME280;20358;50.272;19.026;2024-02-15T10:22:16;98746.81;;;15.47;47.63
34081;BME280;20358;50.272;19.026;2024-02-15T10:25:22;98746.22;;;15.42;47.98
34081;BME280;20358;50.272;19.026;2024-02-15T10:28:36;98750.91;;;15.51;48.05
34081;BME280;20358;50.272;19.026;2024-02-15T10:31:53;98741.91;;;15.56;47.91
34081;BME280;20358;50.272;19.026;2024-02-15T10:35:02;98745.09;;;15.61;47.66
34081;BME280;20358;50.272;19.026;2024-02-15T10:38:10;98753.56;;;15.66;47.70
34081;BME280;20358;50.272;19.026;2024-02-15T10:41:22;98742.22;;;15.78;47.53
34081;BME280;20358;50.272;19.026;2024-02-15T10:44:32;98732.56;;;15.91;47.57
34081;BME280;20358;50.272;19.026;2024-02-15T10:47:39;98736.03;;;16.05;47.22
34081;BME280;20358;50.272;19.026;2024-02-15T10:50:48;98738.78;;;16.17;47.04
34081;BME280;20358;50.272;19.026;2024-02-15T10:54:03;98731.03;;;16.28;47.10
34081;BME280;20358;50.272;19.026;2024-02-15T10:57:20;98737.84;;;16.44;46.58
34081;BME280;20358;50.272;19.026;2024-02-15T11:00:34;98740.00;;;16.64;46.36
34081;BME280;20358;50.272;19.026;2024-02-15T11:03:52;98730.31;;;16.78;45.87
34081;BME280;20358;50.272;19.026;2024-02-15T11:07:07;98734.00;;;16.88;45.81
34081;BME280;20358;50.272;19.026;2024-02-15T11:10:17;98727.34;;;16.95;45.61
34081;BME280;20358;50.272;19.026;2024-02-15T11:13:38;98731.03;;;17.05;45.40
34081;BME280;20358;50.272;19.026;2024-02-15T11:21:52;98716.13;;;17.16;45.15
34081;BME280;20358;50.272;19.026;2024-02-15T11:25:05;98715.47;;;17.25;45.15
34081;BME280;20358;50.272;19.026;2024-02-15T11:29:02;98716.50;;;17.35;44.88
34081;BME280;20358;50.272;19.026;2024-02-15T11:36:36;98708.50;;;17.37;44.63
34081;BME280;20358;50.272;19.026;2024-02-15T11:39:46;98711.22;;;17.48;44.56
34081;BME280;20358;50.272;19.026;2024-02-15T11:42:56;98708.03;;;17.43;44.23
34081;BME280;20358;50.272;19.026;2024-02-15T11:46:05;98703.00;;;17.40;44.30
34081;BME280;20358;50.272;19.026;2024-02-15T11:49:15;98701.31;;;17.26;44.79
34081;BME280;20358;50.272;19.026;2024-02-15T11:52:25;98703.13;;;17.26;44.76
34081;BME280;20358;50.272;19.026;2024-02-15T11:55:33;98697.31;;;17.21;44.88
34081;BME280;20358;50.272;19.026;2024-02-15T11:58:41;98695.31;;;17.24;44.85
34081;BME280;20358;50.272;19.026;2024-02-15T12:01:56;98691.09;;;17.22;45.03
34081;BME280;20358;50.272;19.026;2024-02-15T12:05:20;98692.75;;;17.23;44.96
34081;BME280;20358;50.272;19.026;2024-02-15T12:08:44;98683.91;;;17.24;45.04
34081;BME280;20358;50.272;19.026;2024-02-15T12:12:09;98682.91;;;17.38;44.69
34081;BME280;20358;50.272;19.026;2024-02-15T12:15:30;98680.25;;;17.50;44.41
34081;BME280;20358;50.272;19.026;2024-02-15T12:18:49;98680.22;;;17.63;44.52
34081;BME280;20358;50.272;19.026;2024-02-15T12:22:00;98684.53;;;17.76;44.47
34081;BME280;20358;50.272;19.026;2024-02-15T12:25:15;98681.47;;;17.93;44.48
34081;BME280;20358;50.272;19.026;2024-02-15T12:28:26;98674.75;;;18.01;43.71
34081;BME280;20358;50.272;19.026;2024-02-15T12:31:36;98668.53;;;18.02;43.64
34081;BME280;20358;50.272;19.026;2024-02-15T12:34:44;98663.06;;;17.92;43.64
34081;BME280;20358;50.272;19.026;2024-02-15T12:38:02;98661.94;;;17.83;44.00
34081;BME280;20358;50.272;19.026;2024-02-15T12:41:22;98665.59;;;17.93;43.81
34081;BME280;20358;50.272;19.026;2024-02-15T12:44:29;98659.63;;;18.03;43.64
34081;BME280;20358;50.272;19.026;2024-02-15T12:47:39;98664.22;;;18.12;43.66
34081;BME280;20358;50.272;19.026;2024-02-15T12:50:47;98662.03;;;18.06;43.50
34081;BME280;20358;50.272;19.026;2024-02-15T12:54:08;98659.78;;;18.12;43.63
34081;BME280;20358;50.272;19.026;2024-02-15T12:57:20;98662.31;;;18.14;43.56
34081;BME280;20358;50.272;19.026;2024-02-15T13:00:28;98665.72;;;18.16;43.44
34081;BME280;20358;50.272;19.026;2024-02-15T13:03:40;98663.56;;;18.21;43.70
34081;BME280;20358;50.272;19.026;2024-02-15T13:07:05;98659.72;;;18.25;43.45
34081;BME280;20358;50.272;19.026;2024-02-15T13:10:15;98659.25;;;18.31;43.66
34081;BME280;20358;50.272;19.026;2024-02-15T13:13:29;98658.53;;;18.40;43.54
34081;BME280;20358;50.272;19.026;2024-02-15T13:16:39;98659.03;;;18.45;43.97
34081;BME280;20358;50.272;19.026;2024-02-15T13:19:49;98652.03;;;18.33;43.92
34081;BME280;20358;50.272;19.026;2024-02-15T13:23:08;98643.88;;;18.36;44.22
34081;BME280;20358;50.272;19.026;2024-02-15T13:26:18;98650.59;;;18.40;44.32
34081;BME280;20358;50.272;19.026;2024-02-15T13:29:31;98657.28;;;18.22;44.35
34081;BME280;20358;50.272;19.026;2024-02-15T13:32:40;98658.94;;;18.12;44.76
34081;BME280;20358;50.272;19.026;2024-02-15T13:35:53;98646.34;;;18.15;44.62
34081;BME280;20358;50.272;19.026;2024-02-15T13:39:02;98641.38;;;18.11;44.66
34081;BME280;20358;50.272;19.026;2024-02-15T13:42:13;98642.34;;;18.10;44.67
34081;BME280;20358;50.272;19.026;2024-02-15T13:45:28;98641.13;;;18.14;44.71
34081;BME280;20358;50.272;19.026;2024-02-15T13:48:45;98639.47;;;18.13;44.76
34081;BME280;20358;50.272;19.026;2024-02-15T13:51:55;98640.63;;;18.09;44.93
34081;BME280;20358;50.272;19.026;2024-02-15T13:55:13;98651.34;;;18.07;44.79
34081;BME280;20358;50.272;19.026;2024-02-15T13:58:23;98644.25;;;18.08;44.83
34081;BME280;20358;50.272;19.026;2024-02-15T14:01:36;98649.88;;;18.03;45.14
34081;BME280;20358;50.272;19.026;2024-02-15T14:04:50;98646.13;;;17.94;45.49
34081;BME280;20358;50.272;19.026;2024-02-15T14:08:02;98637.22;;;17.95;45.45
34081;BME280;20358;50.272;19.026;2024-02-15T14:11:14;98637.22;;;17.95;45.48
34081;BME280;20358;50.272;19.026;2024-02-15T14:14:25;98649.28;;;18.00;45.66
34081;BME280;20358;50.272;19.026;2024-02-15T14:17:36;98641.44;;;17.98;45.48
34081;BME280;20358;50.272;19.026;2024-02-15T14:20:54;98640.00;;;17.94;45.51
34081;BME280;20358;50.272;19.026;2024-02-15T14:24:06;98639.16;;;17.93;45.82
34081;BME280;20358;50.272;19.026;2024-02-15T14:27:18;98641.44;;;17.98;45.84
34081;BME280;20358;50.272;19.026;2024-02-15T14:30:36;98648.31;;;18.01;45.72
34081;BME280;20358;50.272;19.026;2024-02-15T14:34:00;98643.13;;;17.99;45.62
34081;BME280;20358;50.272;19.026;2024-02-15T14:37:08;98641.28;;;17.88;45.84
34081;BME280;20358;50.272;19.026;2024-02-15T14:40:16;98642.50;;;17.84;45.99
34081;BME280;20358;50.272;19.026;2024-02-15T14:43:30;98644.50;;;17.81;46.12
34081;BME280;20358;50.272;19.026;2024-02-15T14:46:40;98647.38;;;17.78;46.38
34081;BME280;20358;50.272;19.026;2024-02-15T14:49:53;98651.53;;;17.69;46.19
34081;BME280;20358;50.272;19.026;2024-02-15T14:53:16;98652.22;;;17.60;46.55
34081;BME280;20358;50.272;19.026;2024-02-15T14:56:34;98650.50;;;17.59;46.45
34081;BME280;20358;50.272;19.026;2024-02-15T14:59:41;98650.31;;;17.50;46.38
34081;BME280;20358;50.272;19.026;2024-02-15T15:02:50;98645.88;;;17.50;46.95
34081;BME280;20358;50.272;19.026;2024-02-15T15:06:03;98644.16;;;17.49;46.73
34081;BME280;20358;50.272;19.026;2024-02-15T15:09:23;98645.03;;;17.50;47.12
34081;BME280;20358;50.272;19.026;2024-02-15T15:12:44;98643.94;;;17.52;46.84
34081;BME280;20358;50.272;19.026;2024-02-15T15:15:53;98649.25;;;17.52;46.80
34081;BME280;20358;50.272;19.026;2024-02-15T15:18:59;98648.84;;;17.46;46.99
34081;BME280;20358;50.272;19.026;2024-02-15T15:22:12;98647.50;;;17.40;47.14
34081;BME280;20358;50.272;19.026;2024-02-15T15:25:22;98647.81;;;17.35;47.21
34081;BME280;20358;50.272;19.026;2024-02-15T15:28:32;98652.91;;;17.26;47.17
34081;BME280;20358;50.272;19.026;2024-02-15T15:31:39;98662.03;;;17.22;47.43
34081;BME280;20358;50.272;19.026;2024-02-15T15:34:47;98652.94;;;17.13;47.42
34081;BME280;20358;50.272;19.026;2024-02-15T15:37:57;98659.09;;;17.01;47.80
34081;BME280;20358;50.272;19.026;2024-02-15T15:41:07;98659.41;;;16.97;48.20
34081;BME280;20358;50.272;19.026;2024-02-15T15:44:15;98661.72;;;16.89;48.11
34081;BME280;20358;50.272;19.026;2024-02-15T15:47:35;98668.19;;;16.85;48.27
34081;BME280;20358;50.272;19.026;2024-02-15T15:50:50;98670.50;;;16.77;48.36
34081;BME280;20358;50.272;19.026;2024-02-15T15:54:05;98678.13;;;16.68;48.91
34081;BME280;20358;50.272;19.026;2024-02-15T15:57:18;98678.03;;;16.57;49.06
34081;BME280;20358;50.272;19.026;2024-02-15T16:00:37;98682.41;;;16.44;49.42
34081;BME280;20358;50.272;19.026;2024-02-15T16:03:48;98690.06;;;16.35;49.54
34081;BME280;20358;50.272;19.026;2024-02-15T16:07:02;98687.09;;;16.27;49.72
34081;BME280;20358;50.272;19.026;2024-02-15T16:10:25;98693.66;;;16.21;50.07
34081;BME280;20358;50.272;19.026;2024-02-15T16:13:55;98697.53;;;16.16;50.13
34081;BME280;20358;50.272;19.026;2024-02-15T16:17:12;98697.94;;;16.09;50.29
34081;BME280;20358;50.272;19.026;2024-02-15T16:20:25;98710.69;;;16.03;50.80
34081;BME280;20358;50.272;19.026;2024-02-15T16:23:37;98710.25;;;15.96;51.09
34081;BME280;20358;50.272;19.026;2024-02-15T16:26:53;98711.41;;;15.92;51.09
34081;BME280;20358;50.272;19.026;2024-02-15T16:30:02;98710.84;;;15.87;51.50
34081;BME280;20358;50.272;19.026;2024-02-15T16:33:13;98711.13;;;15.83;51.49
34081;BME280;20358;50.272;19.026;2024-02-15T16:36:21;98712.66;;;15.73;51.87
34081;BME280;20358;50.272;19.026;2024-02-15T16:39:31;98714.75;;;15.68;52.18
34081;BME280;20358;50.272;19.026;2024-02-15T16:42:42;98713.91;;;15.67;52.24
34081;BME280;20358;50.272;19.026;2024-02-15T16:45:52;98712.13;;;15.68;52.26
34081;BME280;20358;50.272;19.026;2024-02-15T16:49:15;98716.25;;;15.72;52.14
34081;BME280;20358;50.272;19.026;2024-02-15T16:52:33;98717.31;;;15.69;52.27
34081;BME280;20358;50.272;19.026;2024-02-15T16:55:58;98716.03;;;15.75;52.16
34081;BME280;20358;50.272;19.026;2024-02-15T16:59:12;98711.44;;;15.78;52.16
34081;BME280;20358;50.272;19.026;2024-02-15T17:02:26;98722.72;;;15.80;52.09